createdAt,value
2023-05-22T00:03:00.946Z,100426.91
2023-05-22T00:06:04.042Z,100418.94
2023-05-22T00:09:06.600Z,100416.59
2023-05-22T00:12:09.483Z,100411.56
2023-05-22T00:15:12.119Z,100416.63
2023-05-22T00:18:15.208Z,100417.56
2023-05-22T00:21:18.630Z,100420.78
2023-05-22T00:24:22.110Z,100420.25
2023-05-22T00:27:24.748Z,100420.16
2023-05-22T00:30:27.306Z,100418.25
2023-05-22T00:33:30.197Z,100426.84
2023-05-22T00:36:33.133Z,100424.94
2023-05-22T00:39:35.812Z,100425.91
2023-05-22T00:42:38.866Z,100419.25
2023-05-22T00:45:41.308Z,100414.00
2023-05-22T00:48:44.052Z,100421.59
2023-05-22T00:51:46.960Z,100415.78
2023-05-22T00:54:50.948Z,100420.59
2023-05-22T00:57:53.891Z,100425.84
2023-05-22T01:00:56.681Z,100431.16
2023-05-22T01:04:05.206Z,100415.44
2023-05-22T01:07:07.953Z,100417.41
2023-05-22T01:10:11.057Z,100418.41
2023-05-22T01:13:34.552Z,100413.94
2023-05-22T01:16:51.158Z,100417.09
2023-05-22T01:20:11.594Z,100413.94
2023-05-22T01:23:32.477Z,100410.69
2023-05-22T01:26:41.924Z,100414.59
2023-05-22T01:30:04.147Z,100412.25
2023-05-22T01:33:08.878Z,100418.72
2023-05-22T01:36:14.592Z,100418.16
2023-05-22T01:39:19.302Z,100407.66
2023-05-22T01:42:22.019Z,100404.97
2023-05-22T01:45:25.104Z,100404.75
2023-05-22T01:48:27.661Z,100405.31
2023-05-22T01:51:43.841Z,100396.00
2023-05-22T01:54:58.447Z,100407.16
2023-05-22T01:58:15.988Z,100402.63
2023-05-22T02:01:20.508Z,100393.25
2023-05-22T02:04:23.766Z,100401.25
2023-05-22T02:07:28.921Z,100400.47
2023-05-22T02:10:34.402Z,100404.63
2023-05-22T02:13:37.960Z,100407.31
2023-05-22T02:16:42.506Z,100401.56
2023-05-22T02:19:45.281Z,100402.09
2023-05-22T02:22:48.456Z,100403.72
2023-05-22T02:25:51.384Z,100401.28
2023-05-22T02:28:54.532Z,100403.25
2023-05-22T02:31:57.238Z,100403.88
2023-05-22T02:35:02.399Z,100396.97
2023-05-22T02:38:05.607Z,100399.81
2023-05-22T02:41:09.315Z,100397.44
2023-05-22T02:44:11.845Z,100394.75
2023-05-22T02:47:14.626Z,100397.91
2023-05-22T02:50:17.346Z,100394.34
2023-05-22T02:53:20.501Z,100399.06
2023-05-22T02:56:24.116Z,100398.28
2023-05-22T02:59:26.779Z,100400.66
2023-05-22T03:02:30.203Z,100403.63
2023-05-22T03:05:33.674Z,100395.91
2023-05-22T03:08:41.616Z,100394.41
2023-05-22T03:11:44.764Z,100395.81
2023-05-22T03:14:47.829Z,100394.56
2023-05-22T03:17:50.908Z,100396.03
2023-05-22T03:20:53.499Z,100384.19
2023-05-22T03:23:56.281Z,100393.97
2023-05-22T03:27:02.075Z,100388.44
2023-05-22T03:30:13.019Z,100393.34
2023-05-22T03:33:19.567Z,100384.72
2023-05-22T03:36:23.301Z,100388.25
2023-05-22T03:39:26.071Z,100390.84
2023-05-22T03:42:34.514Z,100384.09
2023-05-22T03:45:37.031Z,100392.81
2023-05-22T03:48:40.281Z,100388.41
2023-05-22T03:51:42.813Z,100388.41
2023-05-22T03:54:45.506Z,100385.53
2023-05-22T03:57:48.156Z,100395.59
2023-05-22T04:00:50.732Z,100391.16
2023-05-22T04:03:53.350Z,100388.81
2023-05-22T04:06:58.376Z,100383.78
2023-05-22T04:10:01.066Z,100384.50
2023-05-22T04:13:03.958Z,100378.47
2023-05-22T04:16:06.614Z,100379.34
2023-05-22T04:19:10.340Z,100378.91
2023-05-22T04:22:12.972Z,100375.28
2023-05-22T04:25:15.927Z,100381.66
2023-05-22T04:28:22.329Z,100380.41
2023-05-22T04:31:25.504Z,100377.50
2023-05-22T04:34:28.661Z,100376.00
2023-05-22T04:37:31.904Z,100370.34
2023-05-22T04:40:34.798Z,100374.13
2023-05-22T04:43:38.946Z,100380.31
2023-05-22T04:46:42.325Z,100368.75
2023-05-22T04:49:45.892Z,100369.53
2023-05-22T04:52:48.451Z,100382.91
2023-05-22T04:55:51.227Z,100381.44
2023-05-22T04:58:54.019Z,100383.25
2023-05-22T05:02:41.406Z,100381.91
2023-05-22T05:05:44.967Z,100382.44
2023-05-22T05:08:49.856Z,100381.31
2023-05-22T05:11:53.134Z,100381.59
2023-05-22T05:14:56.159Z,100383.75
2023-05-22T05:17:58.810Z,100374.75
2023-05-22T05:21:01.565Z,100387.03
2023-05-22T05:24:04.061Z,100378.81
2023-05-22T05:27:06.892Z,100389.94
2023-05-22T05:30:10.884Z,100392.19
2023-05-22T05:33:52.444Z,100387.47
2023-05-22T05:37:24.239Z,100397.72
2023-05-22T05:40:28.517Z,100401.84
2023-05-22T05:43:31.103Z,100401.78
2023-05-22T05:46:39.657Z,100401.41
2023-05-22T05:49:42.537Z,100407.44
2023-05-22T05:52:45.303Z,100400.72
2023-05-22T05:55:51.847Z,100411.97
2023-05-22T05:58:55.435Z,100409.28
2023-05-22T06:02:21.178Z,100406.09
2023-05-22T06:05:27.051Z,100405.25
2023-05-22T06:08:36.547Z,100399.88
2023-05-22T06:11:39.107Z,100410.88
2023-05-22T06:14:42.052Z,100409.13
2023-05-22T06:17:44.708Z,100402.22
2023-05-22T06:20:47.386Z,100403.19
2023-05-22T06:23:50.643Z,100403.25
2023-05-22T06:26:53.815Z,100406.00
2023-05-22T06:29:56.760Z,100402.16
2023-05-22T06:33:04.344Z,100401.38
2023-05-22T06:36:08.924Z,100411.81
2023-05-22T06:39:12.135Z,100408.19
2023-05-22T06:42:33.355Z,100408.06
2023-05-22T06:45:56.147Z,100403.88
2023-05-22T06:48:58.958Z,100402.53
2023-05-22T06:52:08.141Z,100396.16
2023-05-22T06:55:11.942Z,100392.22
2023-05-22T06:58:27.446Z,100397.31
2023-05-22T07:01:31.681Z,100403.53
2023-05-22T07:04:41.650Z,100394.34
2023-05-22T07:07:48.787Z,100405.28
2023-05-22T07:10:51.891Z,100401.72
2023-05-22T07:13:54.980Z,100400.16
2023-05-22T07:16:58.071Z,100392.56
2023-05-22T07:20:06.980Z,100386.75
2023-05-22T07:23:12.344Z,100386.16
2023-05-22T07:26:15.141Z,100384.75
2023-05-22T07:29:24.583Z,100390.09
2023-05-22T07:32:29.764Z,100390.84
2023-05-22T07:35:34.704Z,100383.47
2023-05-22T07:38:38.780Z,100388.31
2023-05-22T07:41:41.649Z,100382.22
2023-05-22T07:44:48.313Z,100382.28
2023-05-22T07:47:53.960Z,100367.78
2023-05-22T07:50:58.231Z,100375.72
2023-05-22T07:54:01.670Z,100380.72
2023-05-22T07:57:04.538Z,100375.97
2023-05-22T08:00:13.674Z,100376.50
2023-05-22T08:03:17.778Z,100366.03
2023-05-22T08:06:23.206Z,100372.53
2023-05-22T08:09:26.308Z,100363.00
2023-05-22T08:12:28.785Z,100366.13
2023-05-22T08:15:31.540Z,100363.66
2023-05-22T08:18:34.943Z,100364.84
2023-05-22T08:21:37.867Z,100370.25
2023-05-22T08:24:40.453Z,100364.97
2023-05-22T08:27:43.086Z,100362.56
2023-05-22T08:30:45.642Z,100364.72
2023-05-22T08:33:48.295Z,100364.59
2023-05-22T08:36:50.910Z,100356.13
2023-05-22T08:39:53.636Z,100354.66
2023-05-22T08:42:57.569Z,100356.19
2023-05-22T08:46:03.368Z,100356.31
2023-05-22T08:49:06.090Z,100360.13
2023-05-22T08:52:21.580Z,100360.69
2023-05-22T08:55:24.138Z,100356.88
2023-05-22T08:58:27.644Z,100355.31
2023-05-22T09:01:31.101Z,100357.19
2023-05-22T09:04:34.219Z,100353.63
2023-05-22T09:07:38.273Z,100351.59
2023-05-22T09:10:41.074Z,100343.88
2023-05-22T09:13:44.840Z,100341.81
2023-05-22T09:16:49.339Z,100354.22
2023-05-22T09:19:51.981Z,100354.00
2023-05-22T09:22:54.677Z,100351.59
2023-05-22T09:25:58.956Z,100353.66
2023-05-22T09:29:03.132Z,100349.97
2023-05-22T09:32:14.214Z,100347.38
2023-05-22T09:35:18.636Z,100344.66
2023-05-22T09:38:27.579Z,100344.31
2023-05-22T09:41:35.733Z,100338.81
2023-05-22T09:44:39.503Z,100338.72
2023-05-22T09:47:42.467Z,100338.28
2023-05-22T09:50:51.016Z,100337.06
2023-05-22T09:54:03.590Z,100332.09
2023-05-22T09:57:09.485Z,100325.91
2023-05-22T10:00:15.650Z,100331.34
2023-05-22T10:03:23.655Z,100327.34
2023-05-22T10:06:27.448Z,100323.84
2023-05-22T10:09:35.765Z,100315.91
2023-05-22T10:13:05.414Z,100319.50
2023-05-22T10:16:08.521Z,100309.53
2023-05-22T10:19:13.174Z,100317.53
2023-05-22T10:22:21.093Z,100312.13
2023-05-22T10:25:24.056Z,100309.53
2023-05-22T10:28:39.774Z,100314.50
2023-05-22T10:31:48.177Z,100308.41
2023-05-22T10:35:10.295Z,100308.94
2023-05-22T10:38:43.809Z,100299.31
2023-05-22T10:41:46.429Z,100299.13
2023-05-22T10:44:49.809Z,100300.47
2023-05-22T10:48:12.667Z,100289.31
2023-05-22T10:51:21.942Z,100292.53
2023-05-22T10:54:44.603Z,100277.28
2023-05-22T10:57:47.780Z,100269.53
2023-05-22T11:01:07.360Z,100271.88
2023-05-22T11:04:16.049Z,100271.53
2023-05-22T11:07:22.837Z,100267.31
2023-05-22T11:10:59.385Z,100266.31
2023-05-22T11:14:04.353Z,100261.63
2023-05-22T11:17:07.149Z,100260.53
2023-05-22T11:20:18.488Z,100249.53
2023-05-22T11:23:25.183Z,100248.91
2023-05-22T11:26:28.378Z,100247.34
2023-05-22T11:29:31.333Z,100250.91
2023-05-22T11:32:39.894Z,100248.63
2023-05-22T11:35:44.733Z,100240.06
2023-05-22T11:38:47.236Z,100235.34
2023-05-22T11:41:50.073Z,100241.09
2023-05-22T11:44:52.784Z,100242.22
2023-05-22T11:47:55.925Z,100240.94
2023-05-22T11:50:59.125Z,100239.09
2023-05-22T11:54:02.032Z,100236.19
2023-05-22T11:57:08.663Z,100241.19
2023-05-22T12:00:12.220Z,100239.00
2023-05-22T12:03:14.875Z,100234.81
2023-05-22T12:06:18.616Z,100227.47
2023-05-22T12:09:21.339Z,100233.63
2023-05-22T12:12:24.057Z,100226.28
2023-05-22T12:15:26.998Z,100228.84
2023-05-22T12:18:39.224Z,100227.28
2023-05-22T12:21:42.307Z,100221.03
2023-05-22T12:24:48.550Z,100211.25
2023-05-22T12:27:51.486Z,100213.97
2023-05-22T12:30:56.675Z,100215.28
2023-05-22T12:33:59.286Z,100211.16
2023-05-22T12:37:02.187Z,100202.66
2023-05-22T12:40:05.502Z,100205.69
2023-05-22T12:43:08.240Z,100205.94
2023-05-22T12:46:10.988Z,100205.53
2023-05-22T12:49:13.726Z,100196.34
2023-05-22T12:52:16.366Z,100202.09
2023-05-22T12:55:18.964Z,100203.84
2023-05-22T12:58:21.568Z,100197.94
2023-05-22T13:01:24.692Z,100197.44
2023-05-22T13:04:27.396Z,100191.66
2023-05-22T13:07:30.037Z,100181.66
2023-05-22T13:10:32.767Z,100174.28
2023-05-22T13:13:35.530Z,100169.91
2023-05-22T13:16:38.282Z,100168.97
2023-05-22T13:19:40.908Z,100179.22
2023-05-22T13:22:43.766Z,100174.34
2023-05-22T13:25:46.411Z,100166.03
2023-05-22T13:28:49.148Z,100169.97
2023-05-22T13:31:51.808Z,100166.88
2023-05-22T13:34:54.555Z,100161.31
2023-05-22T13:37:57.424Z,100159.16
2023-05-22T13:41:00.113Z,100158.25
2023-05-22T13:44:02.729Z,100157.50
2023-05-22T13:47:05.633Z,100155.78
2023-05-22T13:50:08.779Z,100156.69
2023-05-22T13:53:11.862Z,100161.06
2023-05-22T13:56:15.921Z,100150.53
2023-05-22T13:59:18.516Z,100146.44
2023-05-22T14:02:21.385Z,100154.38
2023-05-22T14:05:24.616Z,100149.00
2023-05-22T14:08:27.389Z,100142.66
2023-05-22T14:11:30.330Z,100147.13
2023-05-22T14:14:32.850Z,100146.66
2023-05-22T14:17:35.507Z,100144.31
2023-05-22T14:20:38.230Z,100134.47
2023-05-22T14:23:40.896Z,100135.81
2023-05-22T14:26:44.294Z,100129.44
2023-05-22T14:29:47.385Z,100130.59
2023-05-22T14:32:50.185Z,100125.19
2023-05-22T14:35:52.776Z,100122.19
2023-05-22T14:38:57.030Z,100115.06
2023-05-22T14:41:59.651Z,100114.75
2023-05-22T14:45:03.473Z,100114.41
2023-05-22T14:48:06.177Z,100122.84
2023-05-22T14:51:09.064Z,100123.53
2023-05-22T14:54:13.042Z,100118.03
2023-05-22T14:57:16.989Z,100111.97
2023-05-22T15:00:20.084Z,100114.97
2023-05-22T15:03:23.615Z,100114.66
2023-05-22T15:06:26.496Z,100114.19
2023-05-22T15:09:29.370Z,100107.63
2023-05-22T15:12:32.064Z,100106.97
2023-05-22T15:15:34.707Z,100108.72
2023-05-22T15:18:37.373Z,100104.19
2023-05-22T15:21:42.217Z,100099.31
2023-05-22T15:24:47.511Z,100101.81
2023-05-22T15:27:50.132Z,100101.59
2023-05-22T15:30:53.049Z,100106.94
2023-05-22T15:33:55.892Z,100102.72
2023-05-22T15:36:58.595Z,100094.38
2023-05-22T15:40:02.062Z,100097.25
2023-05-22T15:43:07.035Z,100091.22
2023-05-22T15:46:12.272Z,100090.16
2023-05-22T15:49:14.884Z,100089.00
2023-05-22T15:52:18.318Z,100086.09
2023-05-22T15:55:21.215Z,100082.84
2023-05-22T15:58:23.683Z,100084.28
2023-05-22T16:01:26.486Z,100076.56
2023-05-22T16:04:29.001Z,100068.91
2023-05-22T16:07:31.993Z,100070.59
2023-05-22T16:10:34.618Z,100071.16
2023-05-22T16:13:37.240Z,100074.03
2023-05-22T16:16:39.829Z,100077.38
2023-05-22T16:19:43.074Z,100073.34
2023-05-22T16:22:48.688Z,100076.94
2023-05-22T16:25:51.886Z,100072.66
2023-05-22T16:28:54.423Z,100078.03
2023-05-22T16:31:57.415Z,100081.47
2023-05-22T16:35:00.289Z,100079.09
2023-05-22T16:38:03.244Z,100094.06
2023-05-22T16:41:05.781Z,100078.19
2023-05-22T16:44:08.414Z,100085.88
2023-05-22T16:47:11.689Z,100090.06
2023-05-22T16:50:14.473Z,100089.03
2023-05-22T16:53:17.146Z,100092.09
2023-05-22T16:56:20.953Z,100099.19
2023-05-22T16:59:23.401Z,100089.06
2023-05-22T17:02:26.247Z,100100.28
2023-05-22T17:05:28.744Z,100099.22
2023-05-22T17:08:32.457Z,100103.00
2023-05-22T17:11:35.324Z,100110.38
2023-05-22T17:14:38.081Z,100112.56
2023-05-22T17:17:40.756Z,100105.00
2023-05-22T17:20:44.555Z,100103.28
2023-05-22T17:23:47.083Z,100110.84
2023-05-22T17:26:49.689Z,100105.53
2023-05-22T17:29:52.269Z,100103.47
2023-05-22T17:32:57.558Z,100095.41
2023-05-22T17:36:00.936Z,100104.25
2023-05-22T17:39:03.692Z,100103.91
2023-05-22T17:42:06.610Z,100113.59
2023-05-22T17:45:10.023Z,100098.97
2023-05-22T17:48:14.592Z,100100.59
2023-05-22T17:51:17.481Z,100106.28
2023-05-22T17:54:20.287Z,100112.19
2023-05-22T17:57:23.125Z,100109.88
2023-05-22T18:00:25.712Z,100115.53
2023-05-22T18:03:28.655Z,100116.75
2023-05-22T18:06:31.407Z,100111.41
2023-05-22T18:09:34.201Z,100110.75
2023-05-22T18:12:38.274Z,100103.44
2023-05-22T18:15:41.662Z,100113.69
2023-05-22T18:21:46.758Z,100116.50
2023-05-22T18:24:49.301Z,100125.06
2023-05-22T18:27:52.182Z,100123.09
2023-05-22T18:30:54.998Z,100117.69
2023-05-22T18:33:57.867Z,100118.44
2023-05-22T18:37:00.342Z,100130.47
2023-05-22T18:40:06.518Z,100131.63
2023-05-22T18:43:09.198Z,100130.41
2023-05-22T18:46:11.927Z,100135.03
2023-05-22T18:49:14.635Z,100133.44
2023-05-22T18:52:17.274Z,100128.81
2023-05-22T18:55:20.004Z,100129.94
2023-05-22T18:58:22.847Z,100131.81
2023-05-22T19:01:25.469Z,100138.75
2023-05-22T19:04:28.594Z,100127.19
2023-05-22T19:07:31.096Z,100127.09
2023-05-22T19:10:33.779Z,100134.78
2023-05-22T19:13:36.247Z,100134.75
2023-05-22T19:16:38.993Z,100139.28
2023-05-22T19:19:41.538Z,100136.59
2023-05-22T19:22:44.537Z,100133.94
2023-05-22T19:25:48.877Z,100136.59
2023-05-22T19:28:51.627Z,100146.22
2023-05-22T19:31:54.308Z,100147.00
2023-05-22T19:34:57.415Z,100145.03
2023-05-22T19:37:59.977Z,100158.88
2023-05-22T19:41:02.756Z,100148.34
2023-05-22T19:44:05.780Z,100145.25
2023-05-22T19:47:08.409Z,100150.84
2023-05-22T19:50:11.622Z,100151.19
2023-05-22T19:53:14.560Z,100157.44
2023-05-22T19:56:17.088Z,100152.16
2023-05-22T19:59:19.715Z,100149.09
2023-05-22T20:02:22.302Z,100158.41
2023-05-22T20:05:26.044Z,100159.50
2023-05-22T20:08:28.608Z,100164.44
2023-05-22T20:11:31.487Z,100164.03
2023-05-22T20:14:34.066Z,100158.81
2023-05-22T20:17:41.872Z,100150.63
2023-05-22T20:20:44.605Z,100151.59
2023-05-22T20:23:47.292Z,100153.44
2023-05-22T20:26:49.981Z,100160.44
2023-05-22T20:29:52.712Z,100160.97
2023-05-22T20:32:55.367Z,100157.13
2023-05-22T20:35:58.792Z,100163.31
2023-05-22T20:39:01.880Z,100160.59
2023-05-22T20:42:04.780Z,100159.84
2023-05-22T20:45:08.397Z,100164.00
2023-05-22T20:48:13.996Z,100167.28
2023-05-22T20:51:18.539Z,100170.50
2023-05-22T20:54:21.390Z,100175.72
2023-05-22T20:57:25.138Z,100180.22
2023-05-22T21:00:28.656Z,100179.09
2023-05-22T21:03:31.184Z,100171.41
2023-05-22T21:06:33.831Z,100174.34
2023-05-22T21:09:36.535Z,100174.81
2023-05-22T21:12:39.689Z,100170.19
2023-05-22T21:15:42.442Z,100168.66
2023-05-22T21:18:45.597Z,100167.88
2023-05-22T21:21:48.193Z,100179.69
2023-05-22T21:24:50.909Z,100186.88
2023-05-22T21:27:54.554Z,100189.75
2023-05-22T21:30:57.300Z,100183.16
2023-05-22T21:34:00.223Z,100180.09
2023-05-22T21:37:03.223Z,100187.16
2023-05-22T21:40:09.383Z,100174.75
2023-05-22T21:43:12.006Z,100177.88
2023-05-22T21:46:14.591Z,100181.63
2023-05-22T21:49:17.106Z,100176.31
2023-05-22T21:52:19.657Z,100177.38
2023-05-22T21:55:22.411Z,100181.25
2023-05-22T21:58:24.973Z,100180.47
2023-05-22T22:01:27.694Z,100181.13
2023-05-22T22:04:30.158Z,100180.41
2023-05-22T22:07:32.984Z,100183.63
2023-05-22T22:10:35.694Z,100181.81
2023-05-22T22:13:38.739Z,100181.63
2023-05-22T22:16:41.570Z,100189.13
2023-05-22T22:19:44.941Z,100175.75
2023-05-22T22:22:47.617Z,100186.63
2023-05-22T22:25:50.318Z,100183.28
2023-05-22T22:28:52.998Z,100183.44
2023-05-22T22:31:56.125Z,100188.59
2023-05-22T22:34:58.821Z,100190.47
2023-05-22T22:38:01.722Z,100183.09
2023-05-22T22:41:05.124Z,100189.06
2023-05-22T22:44:08.017Z,100187.66
2023-05-22T22:47:10.559Z,100186.03
2023-05-22T22:50:13.122Z,100183.94
2023-05-22T22:53:15.853Z,100184.63
2023-05-22T22:56:18.684Z,100178.75
2023-05-22T22:59:21.637Z,100174.31
2023-05-22T23:02:24.580Z,100175.19
2023-05-22T23:05:27.119Z,100173.72
2023-05-22T23:08:29.731Z,100176.31
2023-05-22T23:11:37.529Z,100174.09
2023-05-22T23:14:40.552Z,100171.53
2023-05-22T23:17:43.237Z,100177.84
2023-05-22T23:20:46.458Z,100172.25
2023-05-22T23:23:49.264Z,100170.09
2023-05-22T23:26:53.023Z,100172.03
2023-05-22T23:29:55.842Z,100171.41
2023-05-22T23:32:59.011Z,100169.78
2023-05-22T23:36:01.816Z,100174.97
2023-05-22T23:39:04.793Z,100167.78
2023-05-22T23:42:12.001Z,100167.28
2023-05-22T23:45:15.069Z,100165.09
2023-05-22T23:48:17.812Z,100162.19
2023-05-22T23:51:20.683Z,100160.63
2023-05-22T23:54:23.384Z,100157.28
2023-05-22T23:57:26.090Z,100160.28
